Terminal Aerodrome Forecast
Issued by NWS Duluth, MN

Home | Current Version | Previous Version | Text Only | Print | Product List | Glossary On
Versions: 1 2 3 4 5 6 7 8 9 10 11 12 13 14 15 16 17 18 19 20 21 22 23 24 25 26 27 28 29 30 31 32 33 34 35 36 37 38 39
000
FTUS43 KDLH 191500 AAA
TAFDLH
TAF AMD
KDLH 191557Z 1916/2012 19014G22KT P6SM VCSH OVC019
      TEMPO 1916/1918 6SM -SHRA SCT019 OVC035
     FM191800 20015G25KT P6SM VCSH SCT015 OVC025
      TEMPO 1918/1922 6SM -TSRA BKN018CB
     FM200000 22010KT P6SM BKN025
     FM200600 VRB05KT 5SM BR VCSH OVC012=

USA.gov is the U.S. government's official web portal to all federal, state and local government web resources and services.